Time;durP1;ratioP1;P1;durP2;ratioP2;P2;SDS_P1;SDS_P2;PMS_P1;PMS_P2;Temp;Humidity;BMP_temperature;BMP_pressure;BME280_temperature;BME280_humidity;BME280_pressure;Samples;Min_cycle;Max_cycle;Signal;HPM_P1;HPM_P2
2023/01/25 00:00:28;;;;;;;;;;;;;;;22.18;35.00;103488.81;7260125;19;155267;-76
2023/01/25 00:02:55;;;;;;;;;;;;;;;22.21;35.06;103498.72;7255446;19;156526;-75
2023/01/25 00:05:21;;;;;;;;;;;;;;;22.20;35.23;103494.19;7256721;19;153251;-75
2023/01/25 00:07:49;;;;;;;;;;;;;;;22.21;34.98;103487.44;7262170;19;153735;-76
2023/01/25 00:10:17;;;;;;;;;;;;;;;22.22;35.17;103499.53;7257246;19;154177;-76
2023/01/25 00:12:44;;;;;;;;;;;;;;;22.18;34.96;103493.59;7260644;19;153694;-77
2023/01/25 00:15:11;;;;;;;;;;;;;;;22.15;35.41;103494.97;7259777;19;154377;-75
2023/01/25 00:17:41;;;;;;;;;;;;;;;22.14;35.46;103481.13;7230039;19;154868;-77
2023/01/25 00:20:10;;;;;;;;;;;;;;;22.09;35.18;103487.53;7267251;19;154353;-77
2023/01/25 00:22:37;;;;;;;;;;;;;;;22.08;35.29;103484.97;7261567;19;154659;-76
2023/01/25 00:25:05;;;;;;;;;;;;;;;22.07;35.35;103480.47;7262380;19;153872;-76
2023/01/25 00:27:33;;;;;;;;;;;;;;;22.03;35.22;103479.28;7262205;19;155342;-77
2023/01/25 00:30:00;;;;;;;;;;;;;;;22.00;35.38;103480.63;7265573;19;154015;-78
2023/01/25 00:32:33;;;;;;;;;;;;;;;21.97;35.86;103477.47;7260416;19;153812;-76
2023/01/25 00:35:00;;;;;;;;;;;;;;;21.95;35.93;103474.06;7258074;19;154078;-75
2023/01/25 00:37:40;;;;;;;;;;;;;;;21.93;35.74;103473.47;7256309;19;155270;-76
2023/01/25 00:40:09;;;;;;;;;;;;;;;21.88;35.67;103473.34;7263821;19;153991;-76
2023/01/25 00:42:37;;;;;;;;;;;;;;;21.85;35.90;103468.25;7229783;19;155366;-76
2023/01/25 00:45:05;;;;;;;;;;;;;;;21.82;35.98;103471.56;7247738;19;154080;-77
2023/01/25 00:47:32;;;;;;;;;;;;;;;21.78;36.18;103471.22;7260844;19;154505;-77
2023/01/25 00:49:59;;;;;;;;;;;;;;;21.73;36.24;103463.53;7256143;19;155610;-75
2023/01/25 00:52:27;;;;;;;;;;;;;;;21.71;36.17;103470.56;7256759;19;153741;-76
2023/01/25 00:54:54;;;;;;;;;;;;;;;21.69;36.47;103467.13;7257400;19;154362;-75
2023/01/25 00:57:21;;;;;;;;;;;;;;;21.67;36.57;103464.56;7255626;19;153931;-76
2023/01/25 00:59:48;;;;;;;;;;;;;;;21.67;36.77;103458.94;7255037;19;153918;-76
2023/01/25 01:02:15;;;;;;;;;;;;;;;21.67;36.63;103455.25;7261371;19;152140;-76
2023/01/25 01:04:41;;;;;;;;;;;;;;;21.68;36.33;103460.66;7257055;19;154222;-76
2023/01/25 01:07:14;;;;;;;;;;;;;;;21.65;36.41;103455.53;7257153;19;154732;-76
2023/01/25 01:09:40;;;;;;;;;;;;;;;21.65;36.88;103449.91;7224969;19;155803;-76
2023/01/25 01:12:08;;;;;;;;;;;;;;;21.64;36.81;103441.72;7257306;19;154715;-76
2023/01/25 01:14:35;;;;;;;;;;;;;;;21.59;36.82;103439.66;7255928;19;154869;-76
2023/01/25 01:17:02;;;;;;;;;;;;;;;21.56;36.57;103443.00;7257552;19;154034;-76
2023/01/25 01:19:30;;;;;;;;;;;;;;;21.53;37.03;103437.03;7258640;19;153247;-76
2023/01/25 01:21:57;;;;;;;;;;;;;;;21.50;36.89;103435.56;7256845;19;155185;-75
2023/01/25 01:24:24;;;;;;;;;;;;;;;21.48;36.79;103431.31;7260389;19;153861;-76
2023/01/25 01:26:51;;;;;;;;;;;;;;;21.44;36.74;103433.75;7256625;19;154692;-76
2023/01/25 01:29:19;;;;;;;;;;;;;;;21.41;36.95;103439.06;7253897;19;154609;-77
2023/01/25 01:31:48;;;;;;;;;;;;;;;21.38;36.94;103436.75;7258255;19;153766;-76
2023/01/25 01:34:17;;;;;;;;;;;;;;;21.32;37.21;103433.00;7229914;19;154003;-78
2023/01/25 01:36:44;;;;;;;;;;;;;;;21.31;36.84;103422.84;7253764;19;153764;-77
2023/01/25 01:39:11;;;;;;;;;;;;;;;21.28;37.04;103426.16;7253110;19;153581;-77
2023/01/25 01:41:39;;;;;;;;;;;;;;;21.22;37.37;103430.84;7243951;19;154844;-78
2023/01/25 01:44:13;;;;;;;;;;;;;;;21.17;37.03;103422.31;7248543;19;157102;-78
2023/01/25 01:46:40;;;;;;;;;;;;;;;21.14;37.36;103421.97;7263432;19;153562;-77
2023/01/25 01:49:10;;;;;;;;;;;;;;;21.09;37.39;103417.06;7259502;19;155511;-77
2023/01/25 01:51:37;;;;;;;;;;;;;;;21.08;37.19;103414.50;7260177;19;152755;-77
2023/01/25 01:54:07;;;;;;;;;;;;;;;21.06;37.42;103414.78;7257274;19;153812;-78
2023/01/25 01:56:39;;;;;;;;;;;;;;;21.04;37.15;103424.53;7255667;19;154567;-77
2023/01/25 01:59:07;;;;;;;;;;;;;;;20.97;37.16;103416.28;7234924;19;155036;-77
2023/01/25 02:01:34;;;;;;;;;;;;;;;20.96;37.63;103422.16;7244246;19;153831;-77
2023/01/25 02:04:02;;;;;;;;;;;;;;;20.92;37.50;103419.00;7250648;19;152886;-79
2023/01/25 02:06:32;;;;;;;;;;;;;;;20.88;37.60;103422.56;7252958;19;153514;-77
2023/01/25 02:09:00;;;;;;;;;;;;;;;20.83;37.46;103424.16;7261726;19;154246;-77
2023/01/25 02:11:29;;;;;;;;;;;;;;;20.81;37.22;103437.59;7256195;19;154117;-78
2023/01/25 02:13:59;;;;;;;;;;;;;;;20.75;37.48;103435.81;7255096;19;154453;-78
2023/01/25 02:16:27;;;;;;;;;;;;;;;20.68;37.78;103437.03;7253426;19;155439;-78
2023/01/25 02:18:56;;;;;;;;;;;;;;;20.65;37.56;103444.00;7256739;19;152908;-78
2023/01/25 02:21:24;;;;;;;;;;;;;;;20.61;37.86;103445.63;7256989;19;153677;-77
2023/01/25 02:23:56;;;;;;;;;;;;;;;20.56;37.58;103436.22;7253381;19;153909;-76
2023/01/25 02:26:23;;;;;;;;;;;;;;;20.55;37.55;103442.94;7220559;19;154187;-77
2023/01/25 02:28:53;;;;;;;;;;;;;;;20.54;37.78;103444.88;7255133;19;154090;-78
2023/01/25 02:31:20;;;;;;;;;;;;;;;20.50;37.77;103440.00;7263099;19;153873;-78
2023/01/25 02:33:47;;;;;;;;;;;;;;;20.48;38.04;103431.84;7251918;19;153509;-77
2023/01/25 02:36:18;;;;;;;;;;;;;;;20.45;37.80;103437.94;7251202;19;155070;-78
2023/01/25 02:38:48;;;;;;;;;;;;;;;20.40;38.04;103427.44;7253757;19;153837;-77
2023/01/25 02:41:23;;;;;;;;;;;;;;;20.37;37.76;103430.75;7254386;19;154319;-77
2023/01/25 02:43:53;;;;;;;;;;;;;;;20.33;37.97;103432.34;7245831;19;154520;-77
2023/01/25 02:46:24;;;;;;;;;;;;;;;20.31;37.89;103433.69;7255173;19;153689;-77
2023/01/25 02:48:52;;;;;;;;;;;;;;;20.30;37.92;103429.19;7254079;19;153447;-77
2023/01/25 02:51:21;;;;;;;;;;;;;;;20.26;38.14;103430.75;7239395;19;156913;-73
2023/01/25 02:53:48;;;;;;;;;;;;;;;20.22;38.47;103426.72;7252773;19;154685;-75
2023/01/25 02:56:15;;;;;;;;;;;;;;;20.21;38.32;103428.69;7257705;19;156220;-74
2023/01/25 02:58:42;;;;;;;;;;;;;;;20.18;38.12;103431.09;7259499;19;153512;-73
2023/01/25 03:01:10;;;;;;;;;;;;;;;20.16;38.33;103425.75;7259908;19;154303;-74
2023/01/25 03:03:37;;;;;;;;;;;;;;;20.14;38.20;103435.50;7256868;19;154081;-74
2023/01/25 03:06:04;;;;;;;;;;;;;;;20.08;38.39;103437.34;7257861;19;153396;-73
2023/01/25 03:08:31;;;;;;;;;;;;;;;20.03;38.75;103439.19;7260235;19;154699;-74
2023/01/25 03:11:00;;;;;;;;;;;;;;;20.04;38.62;103438.06;7260241;19;153971;-73
2023/01/25 03:13:28;;;;;;;;;;;;;;;19.98;38.91;103437.97;7267682;19;154319;-73
2023/01/25 03:15:58;;;;;;;;;;;;;;;19.95;38.40;103441.25;7260166;19;155410;-73
2023/01/25 03:18:25;;;;;;;;;;;;;;;19.93;38.64;103431.38;7261053;19;153507;-73
2023/01/25 03:20:53;;;;;;;;;;;;;;;19.91;38.85;103430.75;7259913;19;153650;-73
2023/01/25 03:23:20;;;;;;;;;;;;;;;19.88;38.74;103436.88;7258833;19;155673;-73
2023/01/25 03:25:49;;;;;;;;;;;;;;;19.84;38.91;103433.69;7260432;19;154145;-74
2023/01/25 03:28:16;;;;;;;;;;;;;;;19.83;38.96;103434.78;7261035;19;154111;-74
2023/01/25 03:30:43;;;;;;;;;;;;;;;19.79;39.38;103432.72;7256817;19;152499;-73
2023/01/25 03:33:10;;;;;;;;;;;;;;;19.75;39.06;103431.50;7258979;19;153427;-73
2023/01/25 03:35:37;;;;;;;;;;;;;;;19.71;39.05;103424.66;7265174;19;154428;-73
2023/01/25 03:38:03;;;;;;;;;;;;;;;19.70;38.99;103422.94;7253784;19;155061;-73
2023/01/25 03:40:30;;;;;;;;;;;;;;;19.65;39.45;103420.00;7256892;19;154404;-73
2023/01/25 03:42:57;;;;;;;;;;;;;;;19.60;39.49;103426.34;7253560;19;154094;-73
2023/01/25 03:45:25;;;;;;;;;;;;;;;19.56;39.60;103416.72;7251974;19;154383;-73
2023/01/25 03:47:51;;;;;;;;;;;;;;;19.53;39.24;103417.22;7259634;19;154500;-74
2023/01/25 03:50:18;;;;;;;;;;;;;;;19.56;39.26;103411.09;7256352;19;157961;-73
2023/01/25 03:52:47;;;;;;;;;;;;;;;19.46;39.68;103405.25;7259450;19;153603;-73
2023/01/25 03:55:14;;;;;;;;;;;;;;;19.44;39.35;103401.84;7257083;19;154403;-73
2023/01/25 03:57:41;;;;;;;;;;;;;;;19.42;39.30;103403.97;7263839;19;153976;-73
2023/01/25 04:00:11;;;;;;;;;;;;;;;19.39;39.48;103404.47;7256562;19;154126;-73
2023/01/25 04:02:38;;;;;;;;;;;;;;;19.38;39.37;103408.38;7256152;19;154772;-74
2023/01/25 04:05:05;;;;;;;;;;;;;;;19.39;39.66;103398.88;7254082;19;153705;-74
2023/01/25 04:07:33;;;;;;;;;;;;;;;19.36;39.77;103399.31;7256562;19;154864;-73
2023/01/25 04:10:00;;;;;;;;;;;;;;;19.32;39.58;103396.16;7253557;19;154853;-74
2023/01/25 04:12:26;;;;;;;;;;;;;;;19.27;39.50;103387.63;7256382;19;153841;-73
2023/01/25 04:14:53;;;;;;;;;;;;;;;19.30;39.71;103395.56;7255209;19;152945;-73
2023/01/25 04:17:20;;;;;;;;;;;;;;;19.23;39.55;103394.78;7255565;19;154602;-73
2023/01/25 04:19:50;;;;;;;;;;;;;;;19.20;39.41;103397.22;7263807;19;154007;-75
2023/01/25 04:22:19;;;;;;;;;;;;;;;19.22;39.62;103395.03;7257822;19;154709;-74
2023/01/25 04:24:45;;;;;;;;;;;;;;;19.18;39.50;103379.78;7254789;19;153051;-76
2023/01/25 04:27:13;;;;;;;;;;;;;;;19.17;39.67;103394.91;7256664;19;153493;-74
2023/01/25 04:29:40;;;;;;;;;;;;;;;19.11;39.70;103391.13;7254879;19;153963;-73
2023/01/25 04:32:07;;;;;;;;;;;;;;;19.06;39.84;103385.38;7258210;19;152025;-73
2023/01/25 04:34:35;;;;;;;;;;;;;;;19.08;39.60;103388.78;7255287;19;154099;-75
2023/01/25 04:37:03;;;;;;;;;;;;;;;19.06;39.76;103388.19;7255708;19;154292;-73
2023/01/25 04:39:30;;;;;;;;;;;;;;;19.03;40.04;103386.69;7254749;19;153330;-73
2023/01/25 04:41:57;;;;;;;;;;;;;;;19.00;40.15;103389.97;7229864;19;155760;-73
2023/01/25 04:44:24;;;;;;;;;;;;;;;19.06;39.90;103389.03;7252361;19;153119;-74
2023/01/25 04:46:52;;;;;;;;;;;;;;;18.99;39.87;103393.88;7254066;19;154160;-74
2023/01/25 04:49:19;;;;;;;;;;;;;;;18.95;39.73;103387.03;7257274;19;154552;-73
2023/01/25 04:51:46;;;;;;;;;;;;;;;18.87;40.22;103384.56;7258541;19;153411;-73
2023/01/25 04:54:13;;;;;;;;;;;;;;;18.89;40.12;103385.22;7257798;19;155493;-73
2023/01/25 04:56:39;;;;;;;;;;;;;;;18.85;40.12;103389.53;7253996;19;153530;-73
2023/01/25 04:59:06;;;;;;;;;;;;;;;18.82;40.18;103398.44;7257127;19;153870;-73
2023/01/25 05:01:33;;;;;;;;;;;;;;;18.80;39.87;103383.84;7264088;19;154554;-74
2023/01/25 05:04:00;;;;;;;;;;;;;;;18.79;40.31;103382.13;7254725;19;153858;-73
2023/01/25 05:06:28;;;;;;;;;;;;;;;18.81;39.86;103387.47;7253464;19;155761;-73
2023/01/25 05:08:54;;;;;;;;;;;;;;;18.72;40.01;103381.34;7252875;19;152478;-74
2023/01/25 05:11:22;;;;;;;;;;;;;;;18.72;39.96;103386.94;7253032;19;153337;-73
2023/01/25 05:13:50;;;;;;;;;;;;;;;18.74;40.20;103381.97;7252231;19;154377;-73
2023/01/25 05:16:17;;;;;;;;;;;;;;;18.70;40.36;103386.34;7254103;19;154282;-73
2023/01/25 05:18:45;;;;;;;;;;;;;;;18.73;40.07;103379.41;7254634;19;153245;-75
2023/01/25 05:23:45;;;;;;;;;;;;;;;18.74;40.38;103378.31;7261423;19;155085;-73
2023/01/25 05:28:43;;;;;;;;;;;;;;;18.83;40.69;103376.88;7251574;19;156021;-74
2023/01/25 05:31:09;;;;;;;;;;;;;;;18.83;40.55;103377.75;7254695;19;154532;-72
2023/01/25 05:33:36;;;;;;;;;;;;;;;18.87;40.54;103384.56;7254610;19;155021;-73
2023/01/25 05:36:03;;;;;;;;;;;;;;;18.92;40.56;103381.06;7252781;19;154167;-73
2023/01/25 05:38:30;;;;;;;;;;;;;;;18.96;40.71;103376.69;7254558;19;153957;-74
2023/01/25 05:41:00;;;;;;;;;;;;;;;19.02;40.48;103381.34;7252701;19;153572;-73
2023/01/25 05:43:27;;;;;;;;;;;;;;;19.06;41.16;103388.19;7251570;19;153863;-73
2023/01/25 05:45:54;;;;;;;;;;;;;;;19.10;40.75;103389.41;7256955;19;154248;-75
2023/01/25 05:48:23;;;;;;;;;;;;;;;19.14;40.65;103385.03;7251421;19;156951;-74
2023/01/25 05:50:50;;;;;;;;;;;;;;;19.18;40.63;103386.25;7254922;19;152132;-74
2023/01/25 05:53:17;;;;;;;;;;;;;;;19.23;40.77;103382.72;7254844;19;155475;-73
2023/01/25 05:55:44;;;;;;;;;;;;;;;19.27;40.61;103373.59;7255429;19;155030;-73
2023/01/25 05:58:11;;;;;;;;;;;;;;;19.34;40.63;103379.09;7256526;19;153985;-73
2023/01/25 06:00:38;;;;;;;;;;;;;;;19.37;41.35;103379.47;7255169;19;154748;-73
2023/01/25 06:03:04;;;;;;;;;;;;;;;19.42;41.30;103378.75;7252097;19;153505;-74
2023/01/25 06:05:32;;;;;;;;;;;;;;;19.46;40.47;103377.19;7250900;19;154988;-74
2023/01/25 06:07:59;;;;;;;;;;;;;;;19.51;40.47;103374.53;7262026;19;153385;-73
2023/01/25 06:10:26;;;;;;;;;;;;;;;19.56;40.63;103368.19;7252350;19;154227;-73
2023/01/25 06:12:56;;;;;;;;;;;;;;;19.59;40.25;103370.50;7254581;19;154186;-73
2023/01/25 06:15:23;;;;;;;;;;;;;;;19.64;40.44;103368.69;7254085;19;153177;-74
2023/01/25 06:17:54;;;;;;;;;;;;;;;19.69;40.11;103367.94;7254054;19;153320;-73
2023/01/25 06:20:21;;;;;;;;;;;;;;;19.73;40.01;103364.41;7226656;19;155518;-73
2023/01/25 06:22:48;;;;;;;;;;;;;;;19.77;40.16;103357.22;7244577;19;154453;-73
2023/01/25 06:25:16;;;;;;;;;;;;;;;19.81;39.75;103352.81;7256496;19;153960;-73
2023/01/25 06:27:43;;;;;;;;;;;;;;;19.86;39.67;103350.13;7259291;19;153724;-73
2023/01/25 06:30:10;;;;;;;;;;;;;;;19.90;39.60;103354.16;7264798;19;154543;-73
2023/01/25 06:32:37;;;;;;;;;;;;;;;19.96;39.78;103355.97;7259692;19;154071;-74
2023/01/25 06:35:04;;;;;;;;;;;;;;;19.99;39.42;103355.47;7258396;19;153828;-73
2023/01/25 06:37:33;;;;;;;;;;;;;;;20.04;39.71;103348.28;7261664;19;153977;-73
2023/01/25 06:40:00;;;;;;;;;;;;;;;20.09;39.47;103348.38;7261633;19;154949;-73
2023/01/25 06:42:27;;;;;;;;;;;;;;;20.12;39.74;103348.78;7261474;19;155426;-73
2023/01/25 06:44:53;;;;;;;;;;;;;;;20.16;39.40;103349.13;7257715;19;152397;-74
2023/01/25 06:47:21;;;;;;;;;;;;;;;20.21;39.46;103346.44;7230602;19;156221;-73
2023/01/25 06:49:47;;;;;;;;;;;;;;;20.23;39.74;103339.44;7256426;19;154420;-73
2023/01/25 06:52:14;;;;;;;;;;;;;;;20.27;39.24;103337.84;7267877;19;153517;-74
2023/01/25 06:54:41;;;;;;;;;;;;;;;20.33;38.90;103336.03;7256293;19;154486;-73
2023/01/25 06:57:10;;;;;;;;;;;;;;;20.35;38.99;103331.88;7256703;19;155576;-73
2023/01/25 06:59:37;;;;;;;;;;;;;;;20.39;39.16;103335.06;7261689;19;154427;-73
2023/01/25 07:02:04;;;;;;;;;;;;;;;20.42;38.67;103331.72;7258934;19;154910;-74
2023/01/25 07:04:32;;;;;;;;;;;;;;;20.46;38.74;103338.56;7262084;19;153016;-73
2023/01/25 07:06:59;;;;;;;;;;;;;;;20.49;38.84;103326.81;7260895;19;155411;-73
2023/01/25 07:09:26;;;;;;;;;;;;;;;20.53;38.86;103328.03;7258875;19;157168;-74
2023/01/25 07:11:54;;;;;;;;;;;;;;;20.57;38.71;103328.38;7245102;19;153908;-72
2023/01/25 07:14:21;;;;;;;;;;;;;;;20.59;38.69;103332.63;7252553;19;155548;-72
2023/01/25 07:16:49;;;;;;;;;;;;;;;20.63;38.66;103333.84;7260483;19;153576;-72
2023/01/25 07:19:16;;;;;;;;;;;;;;;20.68;39.30;103333.94;7259542;19;153226;-73
2023/01/25 07:21:45;;;;;;;;;;;;;;;20.72;38.03;103326.72;7256887;19;154415;-73
2023/01/25 07:24:13;;;;;;;;;;;;;;;20.73;37.78;103325.63;7256888;19;152878;-73
2023/01/25 07:26:40;;;;;;;;;;;;;;;20.74;36.94;103332.94;7255714;19;153114;-73
2023/01/25 07:29:08;;;;;;;;;;;;;;;20.77;37.26;103312.75;7255666;19;155119;-72
2023/01/25 07:31:37;;;;;;;;;;;;;;;20.78;36.52;103322.91;7258686;19;153067;-73
2023/01/25 07:34:06;;;;;;;;;;;;;;;20.80;36.80;103311.44;7264509;19;154454;-72
2023/01/25 07:36:39;;;;;;;;;;;;;;;20.83;36.64;103319.34;7256960;19;154649;-73
2023/01/25 07:39:09;;;;;;;;;;;;;;;20.80;36.88;103317.03;7259849;19;155034;-73
2023/01/25 07:41:36;;;;;;;;;;;;;;;20.15;33.20;103313.72;7258369;19;154000;-73
2023/01/25 07:44:03;;;;;;;;;;;;;;;20.42;33.99;103321.38;7256935;19;153930;-73
2023/01/25 07:46:31;;;;;;;;;;;;;;;20.47;34.74;103317.81;7259454;19;154785;-73
2023/01/25 07:48:58;;;;;;;;;;;;;;;20.52;34.21;103317.06;7258900;19;156236;-75
2023/01/25 07:51:26;;;;;;;;;;;;;;;20.52;34.45;103315.09;7263992;19;152927;-74
2023/01/25 07:53:57;;;;;;;;;;;;;;;20.54;34.50;103312.03;7263842;19;154903;-73
2023/01/25 07:56:26;;;;;;;;;;;;;;;20.55;34.70;103308.13;7269494;19;156480;-74
2023/01/25 07:58:54;;;;;;;;;;;;;;;20.55;34.55;103308.13;7260795;19;153778;-73
2023/01/25 08:01:22;;;;;;;;;;;;;;;20.54;34.41;103298.84;7260294;19;154895;-74
2023/01/25 08:03:49;;;;;;;;;;;;;;;20.54;34.41;103310.06;7258250;19;157048;-73
2023/01/25 08:06:26;;;;;;;;;;;;;;;20.49;34.42;103307.16;7259539;19;154350;-73
2023/01/25 08:08:54;;;;;;;;;;;;;;;20.47;34.33;103302.91;7257873;19;155017;-73
2023/01/25 08:11:24;;;;;;;;;;;;;;;20.44;34.01;103290.22;7259864;19;154170;-72
2023/01/25 08:13:53;;;;;;;;;;;;;;;20.42;33.81;103298.03;7260515;19;153707;-75
2023/01/25 08:16:21;;;;;;;;;;;;;;;20.45;34.25;103293.88;7258775;19;154783;-73
2023/01/25 08:18:49;;;;;;;;;;;;;;;20.41;34.69;103297.19;7267564;19;154100;-76
2023/01/25 08:21:17;;;;;;;;;;;;;;;20.40;34.36;103289.00;7256541;19;155580;-75
2023/01/25 08:23:44;;;;;;;;;;;;;;;20.37;34.35;103295.13;7257716;19;154252;-75
2023/01/25 08:26:12;;;;;;;;;;;;;;;20.39;34.42;103282.56;7256242;19;152806;-73
2023/01/25 08:28:40;;;;;;;;;;;;;;;20.45;34.52;103283.50;7257237;19;153403;-73
2023/01/25 08:31:08;;;;;;;;;;;;;;;20.44;34.88;103280.94;7258958;19;154295;-73
2023/01/25 08:33:37;;;;;;;;;;;;;;;20.35;34.31;103274.88;7257399;19;152801;-74
2023/01/25 08:36:07;;;;;;;;;;;;;;;20.32;34.30;103276.22;7253850;19;156258;-72
2023/01/25 08:38:38;;;;;;;;;;;;;;;20.30;34.02;103277.59;7260174;19;153761;-73
2023/01/25 08:41:10;;;;;;;;;;;;;;;20.25;33.89;103281.13;7265349;19;154223;-73
2023/01/25 08:43:37;;;;;;;;;;;;;;;20.23;33.94;103274.88;7254681;19;154360;-73
2023/01/25 08:46:06;;;;;;;;;;;;;;;20.20;34.02;103268.94;7257736;19;155855;-72
2023/01/25 08:48:33;;;;;;;;;;;;;;;20.15;33.90;103266.88;7259364;19;155159;-72
2023/01/25 08:51:00;;;;;;;;;;;;;;;20.12;33.88;103269.31;7260378;19;154357;-72
2023/01/25 08:53:28;;;;;;;;;;;;;;;20.08;34.08;103265.31;7259152;19;153248;-73
2023/01/25 08:55:55;;;;;;;;;;;;;;;20.05;34.01;103257.38;7255136;19;154979;-73
2023/01/25 08:58:23;;;;;;;;;;;;;;;20.02;34.26;103260.69;7257641;19;154247;-73
2023/01/25 09:00:51;;;;;;;;;;;;;;;19.98;34.20;103264.00;7256027;19;156220;-72
2023/01/25 09:03:18;;;;;;;;;;;;;;;19.93;33.99;103258.28;7264276;19;154115;-73
2023/01/25 09:05:45;;;;;;;;;;;;;;;19.89;34.09;103256.22;7256871;19;153327;-72
2023/01/25 09:08:12;;;;;;;;;;;;;;;19.86;34.34;103251.94;7258709;19;153548;-73
2023/01/25 09:10:39;;;;;;;;;;;;;;;19.82;34.29;103241.47;7256780;19;154044;-74
2023/01/25 09:13:06;;;;;;;;;;;;;;;19.80;34.06;103238.91;7257716;19;154261;-74
2023/01/25 09:15:35;;;;;;;;;;;;;;;19.75;34.32;103241.63;7257310;19;153757;-73
2023/01/25 09:18:02;;;;;;;;;;;;;;;19.74;34.06;103227.81;7259529;19;154038;-73
2023/01/25 09:20:29;;;;;;;;;;;;;;;19.72;34.21;103225.25;7257783;19;154318;-73
2023/01/25 09:23:00;;;;;;;;;;;;;;;19.67;34.41;103227.13;7265705;19;155381;-73
2023/01/25 09:25:30;;;;;;;;;;;;;;;19.64;34.23;103227.59;7255716;19;154399;-74
2023/01/25 09:27:59;;;;;;;;;;;;;;;19.56;34.25;103217.63;7255180;19;153727;-73
2023/01/25 09:30:26;;;;;;;;;;;;;;;19.54;34.18;103215.06;7256281;19;153807;-73
2023/01/25 09:33:13;;;;;;;;;;;;;;;19.51;34.37;103209.94;7260084;19;154047;-74
2023/01/25 09:35:46;;;;;;;;;;;;;;;19.47;34.52;103202.28;7254015;19;154650;-74
2023/01/25 09:38:13;;;;;;;;;;;;;;;19.43;34.46;103195.44;7255578;19;152706;-73
2023/01/25 09:40:45;;;;;;;;;;;;;;;19.40;34.72;103193.94;7255998;19;154174;-74
2023/01/25 09:43:31;;;;;;;;;;;;;;;19.37;34.81;103193.59;7252870;19;154911;-73
2023/01/25 09:46:00;;;;;;;;;;;;;;;19.35;34.74;103185.44;7261855;19;153807;-72
2023/01/25 09:48:33;;;;;;;;;;;;;;;19.30;34.89;103178.88;7254318;19;155441;-73
2023/01/25 09:51:01;;;;;;;;;;;;;;;19.26;34.90;103183.28;7256050;19;153197;-73
2023/01/25 09:53:30;;;;;;;;;;;;;;;19.25;34.62;103178.75;7257142;19;153249;-73
2023/01/25 09:55:58;;;;;;;;;;;;;;;19.20;34.98;103170.22;7253962;19;155671;-73
2023/01/25 09:58:31;;;;;;;;;;;;;;;19.15;34.74;103170.97;7253508;19;153764;-73
2023/01/25 10:01:04;;;;;;;;;;;;;;;19.16;35.00;103169.03;7254423;19;154354;-72
2023/01/25 10:03:42;;;;;;;;;;;;;;;19.08;34.95;103162.66;7251027;19;155713;-73
2023/01/25 10:06:12;;;;;;;;;;;;;;;19.08;34.77;103167.41;7252211;19;152712;-72
2023/01/25 10:08:42;;;;;;;;;;;;;;;19.04;35.16;103158.66;7259666;19;154049;-73
2023/01/25 10:11:15;;;;;;;;;;;;;;;18.97;34.85;103157.94;7238220;19;154286;-73
2023/01/25 10:13:45;;;;;;;;;;;;;;;18.93;35.18;103156.72;7239693;19;155100;-72
2023/01/25 10:16:18;;;;;;;;;;;;;;;18.92;35.21;103151.34;7251710;19;154823;-73
2023/01/25 10:18:55;;;;;;;;;;;;;;;18.86;35.07;103135.53;7253019;19;154395;-73
2023/01/25 10:21:25;;;;;;;;;;;;;;;18.82;35.22;103139.91;7252801;19;153575;-72
2023/01/25 10:23:56;;;;;;;;;;;;;;;18.78;35.50;103139.53;7251905;19;153677;-72
2023/01/25 10:26:23;;;;;;;;;;;;;;;18.76;35.21;103135.31;7250090;19;155053;-73
2023/01/25 10:28:50;;;;;;;;;;;;;;;18.74;35.27;103129.06;7253509;19;156001;-74
2023/01/25 10:31:19;;;;;;;;;;;;;;;18.70;35.33;103125.06;7259139;19;155134;-72
2023/01/25 10:33:47;;;;;;;;;;;;;;;18.67;35.23;103123.56;7255940;19;154701;-73
2023/01/25 10:36:17;;;;;;;;;;;;;;;18.62;35.25;103118.72;7253123;19;154176;-73
2023/01/25 10:38:47;;;;;;;;;;;;;;;18.59;35.82;103109.94;7253271;19;153875;-72
2023/01/25 10:41:15;;;;;;;;;;;;;;;18.56;35.83;103107.66;7254018;19;153408;-73
2023/01/25 10:43:42;;;;;;;;;;;;;;;18.55;35.79;103112.38;7251416;19;153767;-72
2023/01/25 10:46:13;;;;;;;;;;;;;;;18.50;35.71;103112.22;7255627;19;154443;-72
2023/01/25 10:48:40;;;;;;;;;;;;;;;18.49;35.49;103107.72;7251766;19;153268;-73
2023/01/25 10:51:07;;;;;;;;;;;;;;;18.48;35.92;103105.19;7251876;19;156065;-72
2023/01/25 10:53:36;;;;;;;;;;;;;;;18.43;35.75;103099.44;7258478;19;152660;-72
2023/01/25 10:56:06;;;;;;;;;;;;;;;18.40;36.03;103092.38;7253549;19;154917;-72
2023/01/25 10:58:36;;;;;;;;;;;;;;;18.38;35.98;103091.78;7249315;19;156130;-72
2023/01/25 11:01:05;;;;;;;;;;;;;;;18.36;35.99;103084.69;7252378;19;154935;-72
2023/01/25 11:03:34;;;;;;;;;;;;;;;18.32;35.79;103078.75;7249356;19;153662;-72
2023/01/25 11:06:02;;;;;;;;;;;;;;;18.30;35.91;103086.53;7254632;19;154115;-73
2023/01/25 11:08:30;;;;;;;;;;;;;;;18.26;36.21;103084.47;7251591;19;155485;-72
2023/01/25 11:10:58;;;;;;;;;;;;;;;18.22;35.96;103084.94;7252775;19;154965;-73
2023/01/25 11:13:28;;;;;;;;;;;;;;;18.20;36.19;103077.88;7263782;19;153401;-72
2023/01/25 11:16:00;;;;;;;;;;;;;;;18.16;36.47;103069.13;7256217;19;156672;-72
2023/01/25 11:18:32;;;;;;;;;;;;;;;18.15;36.20;103069.34;7259084;19;153788;-72
2023/01/25 11:21:03;;;;;;;;;;;;;;;18.14;36.58;103060.09;7258017;19;154708;-72
2023/01/25 11:23:31;;;;;;;;;;;;;;;18.12;36.46;103055.88;7256650;19;154291;-73
2023/01/25 11:26:01;;;;;;;;;;;;;;;18.09;36.26;103051.59;7257087;19;153326;-72
2023/01/25 11:28:29;;;;;;;;;;;;;;;18.04;36.59;103037.47;7255655;19;154934;-72
2023/01/25 11:30:56;;;;;;;;;;;;;;;18.01;36.29;103028.72;7258799;19;153105;-73
2023/01/25 11:33:25;;;;;;;;;;;;;;;17.99;36.42;103023.34;7258397;19;153976;-72
2023/01/25 11:35:53;;;;;;;;;;;;;;;18.00;36.37;103016.66;7263014;19;156269;-72
2023/01/25 11:38:22;;;;;;;;;;;;;;;17.99;36.41;103008.53;7258248;19;153808;-73
2023/01/25 11:40:52;;;;;;;;;;;;;;;17.91;36.61;103004.13;7257780;19;156501;-72
2023/01/25 11:43:23;;;;;;;;;;;;;;;17.91;36.71;103006.06;7253357;19;157299;-74
2023/01/25 11:45:50;;;;;;;;;;;;;;;17.85;36.75;103010.69;7257762;19;153181;-72
2023/01/25 11:48:20;;;;;;;;;;;;;;;17.87;36.64;103002.06;7258609;19;156848;-72
2023/01/25 11:50:50;;;;;;;;;;;;;;;17.88;36.59;103009.34;7257977;19;153868;-72
2023/01/25 11:53:20;;;;;;;;;;;;;;;17.84;36.90;103008.13;7261799;19;153541;-72
2023/01/25 11:55:48;;;;;;;;;;;;;;;17.84;36.61;102999.75;7258682;19;153550;-72
2023/01/25 11:58:25;;;;;;;;;;;;;;;17.80;37.10;103002.19;7263869;19;153811;-72
2023/01/25 12:00:53;;;;;;;;;;;;;;;17.80;36.77;102996.59;7258154;19;153072;-72
2023/01/25 12:03:23;;;;;;;;;;;;;;;17.79;36.87;102989.28;7253799;19;154185;-72
2023/01/25 12:05:55;;;;;;;;;;;;;;;17.76;36.93;102976.63;7255901;19;152636;-72
2023/01/25 12:08:29;;;;;;;;;;;;;;;17.72;37.25;102966.16;7256793;19;156001;-72
2023/01/25 12:11:01;;;;;;;;;;;;;;;17.72;36.96;102968.94;7255996;19;154780;-72
2023/01/25 12:13:29;;;;;;;;;;;;;;;17.70;37.00;102969.22;7254340;19;153486;-72
2023/01/25 12:15:58;;;;;;;;;;;;;;;17.75;37.10;102963.75;7253756;19;154146;-72
2023/01/25 12:18:28;;;;;;;;;;;;;;;17.83;37.18;102962.53;7256010;19;157622;-73
2023/01/25 12:20:56;;;;;;;;;;;;;;;17.86;36.96;102962.03;7264523;19;153461;-72
2023/01/25 12:23:26;;;;;;;;;;;;;;;17.89;37.27;102967.19;7255448;19;155220;-71
2023/01/25 12:25:58;;;;;;;;;;;;;;;17.93;37.02;102959.16;7255815;19;155971;-72
2023/01/25 12:28:32;;;;;;;;;;;;;;;17.97;37.28;102954.78;7253043;19;153952;-72
2023/01/25 12:31:03;;;;;;;;;;;;;;;18.00;37.20;102945.88;7256969;19;157035;-72
2023/01/25 12:33:33;;;;;;;;;;;;;;;18.06;37.41;102944.94;7258699;19;153754;-72
2023/01/25 12:36:03;;;;;;;;;;;;;;;18.09;37.15;102942.50;7256644;19;154278;-72
2023/01/25 12:38:31;;;;;;;;;;;;;;;18.14;37.23;102950.16;7257308;19;154448;-72